Time;durP1;ratioP1;P1;durP2;ratioP2;P2;SDS_P1;SDS_P2;PMS_P1;PMS_P2;Temp;Humidity;BMP_temperature;BMP_pressure;BME280_temperature;BME280_humidity;BME280_pressure;Samples;Min_cycle;Max_cycle;Signal;HPM_P1;HPM_P2
2023/09/05 00:01:13;;;;;;;9.13;5.63;;;14.80;99.90;;;;;;5078589;28;20040;-83
2023/09/05 00:03:40;;;;;;;10.18;5.78;;;14.80;99.90;;;;;;5094896;28;20038;-83
2023/09/05 00:06:10;;;;;;;9.60;5.75;;;14.70;99.90;;;;;;5062039;28;20458;-83
2023/09/05 00:08:38;;;;;;;7.70;5.45;;;14.70;99.90;;;;;;5078351;28;20052;-83
2023/09/05 00:11:05;;;;;;;8.63;5.75;;;14.60;99.90;;;;;;5089784;28;20043;-83
2023/09/05 00:13:31;;;;;;;7.72;5.60;;;14.60;99.90;;;;;;5077988;28;20032;-83
2023/09/05 00:15:58;;;;;;;8.60;5.90;;;14.60;99.90;;;;;;5061335;28;20036;-83
2023/09/05 00:18:25;;;;;;;8.50;5.97;;;14.50;99.90;;;;;;5111326;28;20036;-83
2023/09/05 00:20:54;;;;;;;8.68;5.72;;;14.50;99.90;;;;;;5120886;28;20043;-83
2023/09/05 00:23:24;;;;;;;8.80;5.95;;;14.60;99.90;;;;;;5081689;28;20498;-84
2023/09/05 00:25:51;;;;;;;11.38;6.55;;;14.50;99.90;;;;;;5098018;28;20040;-83
2023/09/05 00:28:21;;;;;;;8.32;6.00;;;14.50;99.90;;;;;;5114819;28;20042;-84
2023/09/05 00:30:48;;;;;;;7.72;5.55;;;14.40;99.90;;;;;;5114876;28;20054;-83
2023/09/05 00:33:15;;;;;;;8.95;5.68;;;14.50;99.90;;;;;;5098435;28;20036;-83
2023/09/05 00:35:41;;;;;;;10.60;6.32;;;14.40;99.90;;;;;;5081055;28;20044;-83
2023/09/05 00:38:08;;;;;;;9.50;6.03;;;14.40;99.90;;;;;;5081505;28;20080;-83
2023/09/05 00:40:35;;;;;;;10.20;6.18;;;14.40;99.90;;;;;;5097609;28;20116;-84
2023/09/05 00:43:02;;;;;;;9.27;6.25;;;14.40;99.90;;;;;;5080832;28;20036;-83
2023/09/05 00:45:29;;;;;;;8.68;6.07;;;14.30;99.90;;;;;;5097364;28;20043;-84
2023/09/05 00:47:57;;;;;;;7.72;5.38;;;14.30;99.90;;;;;;5080757;28;20514;-83
2023/09/05 00:50:24;;;;;;;8.07;5.70;;;14.20;99.90;;;;;;5097536;28;20061;-85
2023/09/05 00:52:51;;;;;;;7.53;5.25;;;14.20;99.90;;;;;;5097962;28;20038;-83
2023/09/05 00:55:19;;;;;;;12.35;6.18;;;14.20;99.90;;;;;;5080895;28;20039;-83
2023/09/05 00:57:45;;;;;;;9.40;5.82;;;14.20;99.90;;;;;;5113827;28;20083;-83
2023/09/05 01:00:14;;;;;;;8.15;5.57;;;14.20;99.90;;;;;;5080559;28;20090;-83
2023/09/05 01:02:41;;;;;;;7.80;5.90;;;14.10;99.90;;;;;;5114304;28;20040;-83
2023/09/05 01:05:08;;;;;;;9.85;6.93;;;14.10;99.90;;;;;;5079628;28;20403;-83
2023/09/05 01:08:07;;;;;;;7.88;5.88;;;14.10;99.90;;;;;;5097066;28;20056;-83
2023/09/05 01:10:58;;;;;;;8.30;6.00;;;14.00;99.90;;;;;;5113782;28;20130;-83
2023/09/05 01:13:26;;;;;;;10.10;6.30;;;14.00;99.90;;;;;;5132127;28;20130;-89
2023/09/05 01:15:54;;;;;;;9.75;6.57;;;14.00;99.90;;;;;;5114848;28;20439;-89
2023/09/05 01:18:21;;;;;;;8.88;5.95;;;14.00;99.90;;;;;;5114900;28;20126;-90
2023/09/05 01:21:18;;;;;;;8.55;5.75;;;14.00;99.90;;;;;;5131500;28;20083;-89
2023/09/05 01:23:55;;;;;;;8.63;5.85;;;13.90;99.90;;;;;;5131509;28;20499;-88
2023/09/05 01:26:22;;;;;;;8.18;5.53;;;13.90;99.90;;;;;;5114440;28;20040;-89
2023/09/05 01:28:52;;;;;;;8.30;5.82;;;13.90;99.90;;;;;;5098251;28;20050;-89
2023/09/05 01:31:19;;;;;;;8.13;5.88;;;13.90;99.90;;;;;;5082059;28;20039;-89
2023/09/05 01:33:46;;;;;;;10.27;6.07;;;13.90;99.90;;;;;;5114039;28;20504;-89
2023/09/05 01:36:12;;;;;;;9.77;6.05;;;13.80;99.90;;;;;;5081578;28;20050;-89
2023/09/05 01:38:39;;;;;;;9.02;6.13;;;13.80;99.90;;;;;;5081346;28;20395;-89
2023/09/05 01:41:06;;;;;;;9.93;6.13;;;13.80;99.90;;;;;;5081152;28;20039;-89
2023/09/05 01:43:32;;;;;;;10.82;5.95;;;13.80;99.90;;;;;;5081224;28;20488;-89
2023/09/05 01:45:59;;;;;;;10.45;5.65;;;13.80;99.90;;;;;;5114216;28;20042;-89
2023/09/05 01:48:26;;;;;;;8.82;6.10;;;13.70;99.90;;;;;;5081307;28;20514;-89
2023/09/05 01:50:53;;;;;;;8.57;6.10;;;13.70;99.90;;;;;;5081111;28;20519;-90
2023/09/05 01:53:19;;;;;;;9.38;5.95;;;13.70;99.90;;;;;;5097714;28;20059;-89
2023/09/05 01:55:46;;;;;;;10.32;5.68;;;13.70;99.90;;;;;;5114507;28;20047;-89
2023/09/05 01:58:13;;;;;;;9.63;5.60;;;13.70;99.90;;;;;;5081234;28;20067;-89
2023/09/05 02:00:39;;;;;;;12.45;6.80;;;13.60;99.90;;;;;;5080867;28;20039;-89
2023/09/05 02:03:06;;;;;;;10.27;6.53;;;13.60;99.90;;;;;;5097643;28;20055;-89
2023/09/05 02:05:33;;;;;;;10.70;6.60;;;13.60;99.90;;;;;;5080561;28;20098;-89
2023/09/05 02:08:00;;;;;;;9.63;6.63;;;13.60;99.90;;;;;;5110298;28;20064;-89
2023/09/05 02:10:29;;;;;;;9.88;7.10;;;13.60;99.90;;;;;;5094003;28;20083;-89
2023/09/05 02:12:56;;;;;;;8.82;6.97;;;13.60;99.90;;;;;;5094782;28;20488;-89
2023/09/05 02:15:23;;;;;;;10.90;7.53;;;13.60;99.90;;;;;;5077088;28;20046;-89
2023/09/05 02:17:50;;;;;;;10.25;6.88;;;13.60;99.90;;;;;;5093680;28;20094;-89
2023/09/05 02:20:16;;;;;;;9.82;6.93;;;13.60;99.90;;;;;;5094003;28;20039;-89
2023/09/05 02:22:46;;;;;;;9.55;7.07;;;13.60;99.90;;;;;;5077280;28;20097;-89
2023/09/05 02:25:13;;;;;;;11.23;7.03;;;13.60;99.90;;;;;;5093603;28;20047;-88
2023/09/05 02:27:39;;;;;;;9.85;6.97;;;13.60;99.90;;;;;;5077092;28;20029;-89
2023/09/05 02:30:07;;;;;;;11.52;6.68;;;13.60;99.90;;;;;;5093518;28;20047;-88
2023/09/05 02:32:34;;;;;;;11.57;6.80;;;13.60;99.90;;;;;;5110225;28;20036;-89
2023/09/05 02:35:01;;;;;;;10.50;7.47;;;13.60;99.90;;;;;;5093355;28;20181;-89
2023/09/05 02:37:28;;;;;;;13.02;6.90;;;13.60;99.90;;;;;;5077403;28;20082;-89
2023/09/05 02:39:55;;;;;;;10.32;7.18;;;13.50;99.90;;;;;;5093380;28;20039;-89
2023/09/05 02:42:22;;;;;;;9.90;7.40;;;13.50;99.90;;;;;;5077378;28;20610;-89
2023/09/05 02:44:53;;;;;;;10.65;6.75;;;13.50;99.90;;;;;;5077007;28;20062;-89
2023/09/05 02:47:20;;;;;;;11.82;7.20;;;13.60;99.90;;;;;;5077172;28;20047;-88
2023/09/05 02:49:47;;;;;;;10.45;7.30;;;13.50;99.90;;;;;;5093396;28;20089;-89
2023/09/05 02:52:14;;;;;;;10.43;6.95;;;13.50;99.90;;;;;;5093389;28;20040;-83
2023/09/05 02:54:40;;;;;;;10.60;7.03;;;13.50;99.90;;;;;;5092376;28;20381;-83
2023/09/05 02:57:07;;;;;;;11.82;7.70;;;13.50;99.90;;;;;;5075576;28;20040;-83
2023/09/05 02:59:34;;;;;;;10.60;7.70;;;13.60;99.90;;;;;;5076318;28;20032;-83
2023/09/05 03:02:00;;;;;;;9.90;7.18;;;13.50;99.90;;;;;;5086248;28;20089;-83
2023/09/05 03:04:32;;;;;;;12.35;7.57;;;13.50;99.90;;;;;;5081655;28;20094;-83
2023/09/05 03:07:02;;;;;;;11.77;7.70;;;13.60;99.90;;;;;;5080099;28;20543;-83
2023/09/05 03:09:29;;;;;;;10.27;7.25;;;13.60;99.90;;;;;;5095705;28;20046;-83
2023/09/05 03:11:56;;;;;;;11.32;7.28;;;13.60;99.90;;;;;;5112085;28;20044;-84
2023/09/05 03:14:23;;;;;;;14.35;7.70;;;13.50;99.90;;;;;;5069453;28;20047;-83
2023/09/05 03:16:50;;;;;;;10.88;7.63;;;13.50;99.90;;;;;;5075541;28;20041;-83
2023/09/05 03:19:16;;;;;;;11.48;7.35;;;13.50;99.90;;;;;;5059147;28;20056;-83
2023/09/05 03:21:43;;;;;;;11.35;7.57;;;13.50;99.90;;;;;;5075609;28;20127;-83
2023/09/05 03:24:10;;;;;;;10.35;7.18;;;13.50;99.90;;;;;;5059070;28;20036;-83
2023/09/05 03:26:37;;;;;;;13.23;7.63;;;13.50;99.90;;;;;;5075583;28;20036;-83
2023/09/05 03:29:03;;;;;;;10.65;7.80;;;13.50;99.90;;;;;;5060278;28;20032;-83
2023/09/05 03:31:31;;;;;;;14.60;7.85;;;13.50;99.90;;;;;;5078862;28;20134;-84
2023/09/05 03:33:57;;;;;;;12.32;7.60;;;13.50;99.90;;;;;;5080362;28;20043;-84
2023/09/05 03:36:26;;;;;;;10.32;7.28;;;13.50;99.90;;;;;;5078910;28;20044;-83
2023/09/05 03:38:53;;;;;;;11.80;7.07;;;13.50;99.90;;;;;;5072112;28;20044;-84
2023/09/05 03:41:20;;;;;;;10.85;7.43;;;13.50;99.90;;;;;;5082969;28;20586;-83
2023/09/05 03:43:46;;;;;;;10.15;7.32;;;13.40;99.90;;;;;;5082368;28;20044;-83
2023/09/05 03:46:13;;;;;;;10.57;7.25;;;13.50;99.90;;;;;;5098399;28;20554;-84
2023/09/05 03:48:40;;;;;;;11.02;7.63;;;13.40;99.90;;;;;;5078955;28;20151;-83
2023/09/05 03:51:07;;;;;;;10.57;7.43;;;13.40;99.90;;;;;;5095273;28;20462;-84
2023/09/05 03:53:34;;;;;;;11.95;7.45;;;13.40;99.90;;;;;;5095255;28;20123;-83
2023/09/05 03:56:00;;;;;;;9.20;6.85;;;13.40;99.90;;;;;;5078318;28;20483;-83
2023/09/05 03:58:27;;;;;;;11.38;7.47;;;13.40;99.90;;;;;;5061942;28;20040;-84
2023/09/05 04:00:57;;;;;;;11.00;7.25;;;13.40;99.90;;;;;;5090871;28;20500;-84
2023/09/05 04:03:24;;;;;;;12.20;7.90;;;13.40;99.90;;;;;;5095224;28;20033;-83
2023/09/05 04:05:52;;;;;;;11.07;7.22;;;13.40;99.90;;;;;;5094647;28;20040;-84
2023/09/05 04:08:19;;;;;;;10.60;7.95;;;13.40;99.90;;;;;;5091464;28;20052;-83
2023/09/05 04:10:45;;;;;;;11.02;7.63;;;13.40;99.90;;;;;;5074737;28;20086;-84
2023/09/05 04:13:12;;;;;;;12.15;8.00;;;13.40;99.90;;;;;;5074540;28;20484;-83
2023/09/05 04:15:39;;;;;;;12.55;7.78;;;13.40;99.90;;;;;;5074677;28;20408;-84
2023/09/05 04:18:05;;;;;;;10.35;7.40;;;13.40;99.90;;;;;;5074299;28;20049;-84
2023/09/05 04:20:33;;;;;;;13.93;8.60;;;13.40;99.90;;;;;;5091079;28;20131;-84
2023/09/05 04:23:00;;;;;;;12.40;8.00;;;13.40;99.90;;;;;;5074125;28;20047;-84
2023/09/05 04:25:27;;;;;;;10.85;7.25;;;13.40;99.90;;;;;;5090944;28;20127;-83
2023/09/05 04:27:54;;;;;;;11.38;7.30;;;13.40;99.90;;;;;;5074390;28;20792;-84
2023/09/05 04:30:20;;;;;;;10.73;7.68;;;13.40;99.90;;;;;;5074195;28;20036;-84
2023/09/05 04:32:47;;;;;;;11.70;8.07;;;13.30;99.90;;;;;;5074538;28;20038;-84
2023/09/05 04:35:14;;;;;;;12.20;8.10;;;13.40;99.90;;;;;;5074169;28;20411;-84
2023/09/05 04:37:41;;;;;;;13.43;8.05;;;13.30;99.90;;;;;;5074976;28;20048;-88
2023/09/05 04:40:08;;;;;;;12.38;7.47;;;13.30;99.90;;;;;;5074887;28;20051;-89
2023/09/05 04:42:35;;;;;;;10.35;7.53;;;13.30;99.90;;;;;;5075160;28;20071;-89
2023/09/05 04:45:02;;;;;;;14.80;7.63;;;13.30;99.90;;;;;;5058619;28;20133;-88
2023/09/05 04:47:29;;;;;;;13.23;7.88;;;13.30;99.90;;;;;;5075113;28;20068;-88
2023/09/05 04:49:59;;;;;;;13.18;8.65;;;13.30;99.90;;;;;;5075076;28;20196;-88
2023/09/05 04:52:27;;;;;;;9.82;7.60;;;13.30;99.90;;;;;;5074945;28;20052;-88
2023/09/05 04:54:56;;;;;;;10.77;8.02;;;13.30;99.90;;;;;;5075005;28;20396;-89
2023/09/05 04:57:22;;;;;;;11.38;7.97;;;13.30;99.90;;;;;;5074395;28;20083;-89
2023/09/05 04:59:51;;;;;;;12.65;8.20;;;13.30;99.90;;;;;;5091492;28;20044;-88
2023/09/05 05:02:18;;;;;;;11.43;8.43;;;13.30;99.90;;;;;;5074605;28;20504;-89
2023/09/05 05:04:45;;;;;;;12.65;8.60;;;13.30;99.90;;;;;;5091236;28;20044;-89
2023/09/05 05:07:12;;;;;;;11.45;8.05;;;13.30;99.90;;;;;;5094298;28;20052;-88
2023/09/05 05:09:39;;;;;;;14.10;8.23;;;13.30;99.90;;;;;;5084675;28;20036;-89
2023/09/05 05:12:07;;;;;;;12.15;7.80;;;13.30;99.90;;;;;;5116666;28;20050;-88
2023/09/05 05:14:34;;;;;;;11.98;7.95;;;13.30;99.90;;;;;;5081659;28;20036;-89
2023/09/05 05:17:02;;;;;;;11.75;8.10;;;13.30;99.90;;;;;;5094187;28;20040;-88
2023/09/05 05:19:29;;;;;;;11.95;7.93;;;13.30;99.90;;;;;;5093491;28;20510;-88
2023/09/05 05:21:56;;;;;;;11.57;8.27;;;13.30;99.90;;;;;;5108871;28;20050;-89
2023/09/05 05:24:23;;;;;;;12.20;8.38;;;13.30;99.90;;;;;;5102862;28;20047;-87
2023/09/05 05:26:50;;;;;;;11.70;7.88;;;13.00;99.90;;;;;;5070057;28;20118;-89
2023/09/05 05:29:17;;;;;;;12.88;8.70;;;13.40;99.90;;;;;;5122305;28;20456;-89
2023/09/05 05:31:43;;;;;;;11.70;8.18;;;13.40;99.90;;;;;;5080497;28;20036;-89
2023/09/05 05:34:10;;;;;;;13.25;8.55;;;13.40;99.90;;;;;;5072263;28;20488;-88
2023/09/05 05:36:37;;;;;;;13.10;9.38;;;13.40;99.90;;;;;;5090112;28;20133;-88
2023/09/05 05:39:03;;;;;;;12.02;8.32;;;13.40;99.90;;;;;;5071744;28;20042;-88
2023/09/05 05:41:32;;;;;;;12.55;8.77;;;13.40;99.90;;;;;;5074411;28;20051;-88
2023/09/05 05:43:59;;;;;;;13.52;8.40;;;13.50;99.90;;;;;;5085697;28;20039;-89
2023/09/05 05:46:25;;;;;;;13.68;9.00;;;13.50;99.90;;;;;;5094224;28;20773;-89
2023/09/05 05:48:52;;;;;;;14.57;9.35;;;13.60;99.90;;;;;;5097528;28;20070;-88
2023/09/05 05:51:19;;;;;;;16.73;9.57;;;13.60;99.90;;;;;;5080275;28;20036;-88
2023/09/05 05:53:48;;;;;;;12.40;8.70;;;13.60;99.90;;;;;;5097875;28;20044;-88
2023/09/05 05:56:15;;;;;;;13.20;8.95;;;13.70;99.90;;;;;;5097398;28;20119;-88
2023/09/05 05:58:41;;;;;;;12.52;9.05;;;13.70;99.90;;;;;;5080780;28;20099;-88
2023/09/05 06:01:09;;;;;;;14.50;9.23;;;13.70;99.90;;;;;;5080572;28;20081;-88
2023/09/05 06:03:36;;;;;;;18.00;9.68;;;13.80;99.90;;;;;;5081166;28;20036;-88
2023/09/05 06:06:03;;;;;;;11.73;8.25;;;13.90;99.90;;;;;;5080720;28;20139;-88
2023/09/05 06:08:30;;;;;;;12.25;8.68;;;13.90;99.90;;;;;;5093316;28;20083;-88
2023/09/05 06:10:57;;;;;;;13.73;9.07;;;14.00;99.90;;;;;;5110300;28;20055;-87
2023/09/05 06:13:24;;;;;;;13.32;8.98;;;14.00;99.90;;;;;;5093489;28;20492;-88
2023/09/05 06:15:51;;;;;;;14.85;8.95;;;14.10;99.90;;;;;;5110744;28;20036;-87
2023/09/05 06:18:19;;;;;;;15.20;9.63;;;14.10;99.90;;;;;;5076831;28;20040;-89
2023/09/05 06:20:45;;;;;;;13.20;8.90;;;14.20;99.90;;;;;;5109949;28;20044;-89
2023/09/05 06:23:12;;;;;;;12.30;8.52;;;14.30;99.90;;;;;;5093646;28;20046;-89
2023/09/05 06:25:39;;;;;;;15.73;9.05;;;14.30;99.90;;;;;;5077079;28;20036;-89
2023/09/05 06:28:06;;;;;;;12.93;8.75;;;14.40;99.90;;;;;;5097019;28;20111;-88
2023/09/05 06:30:33;;;;;;;17.83;8.52;;;14.40;99.90;;;;;;5074122;28;20120;-89
2023/09/05 06:32:59;;;;;;;12.15;9.13;;;14.40;99.90;;;;;;5060235;28;20028;-89
2023/09/05 06:35:26;;;;;;;15.57;9.30;;;14.50;99.90;;;;;;5071289;28;20130;-88
2023/09/05 06:37:56;;;;;;;12.00;8.48;;;14.50;99.90;;;;;;5085870;28;20101;-89
2023/09/05 06:40:23;;;;;;;17.52;8.35;;;14.60;99.90;;;;;;5073923;28;20055;-89
2023/09/05 06:42:53;;;;;;;12.07;8.65;;;14.70;99.90;;;;;;5073419;28;20089;-89
2023/09/05 06:45:21;;;;;;;11.23;7.88;;;14.80;99.90;;;;;;5073641;28;20039;-89
2023/09/05 06:47:47;;;;;;;12.82;8.60;;;14.90;99.90;;;;;;5081502;28;20399;-89
2023/09/05 06:50:14;;;;;;;14.60;8.55;;;15.00;99.90;;;;;;5109924;28;20130;-89
2023/09/05 06:52:41;;;;;;;11.02;8.15;;;15.10;99.90;;;;;;5076144;28;20051;-88
2023/09/05 06:55:08;;;;;;;11.20;8.07;;;15.10;99.90;;;;;;5060129;28;20041;-89
2023/09/05 06:57:34;;;;;;;11.00;7.97;;;15.20;99.90;;;;;;5061750;28;20493;-88
2023/09/05 07:00:01;;;;;;;11.38;7.93;;;15.40;99.90;;;;;;5079300;28;20040;-90
2023/09/05 07:02:28;;;;;;;12.73;7.78;;;15.50;99.90;;;;;;5083730;28;20052;-89
2023/09/05 07:04:55;;;;;;;10.73;8.23;;;15.60;99.90;;;;;;5075715;28;20531;-88
2023/09/05 07:07:21;;;;;;;13.80;7.60;;;15.70;99.90;;;;;;5065877;28;20131;-88
2023/09/05 07:09:48;;;;;;;12.32;7.18;;;15.90;99.90;;;;;;5057125;28;20044;-89
2023/09/05 07:12:15;;;;;;;13.05;7.80;;;15.90;99.90;;;;;;5097544;28;20032;-87
2023/09/05 07:14:43;;;;;;;10.30;7.38;;;16.00;99.90;;;;;;5062624;28;20036;-89
2023/09/05 07:17:10;;;;;;;11.00;7.47;;;16.10;99.90;;;;;;5063633;28;20043;-90
2023/09/05 07:19:37;;;;;;;11.10;7.72;;;16.20;99.90;;;;;;5076067;28;20540;-88
2023/09/05 07:22:04;;;;;;;10.55;7.15;;;16.30;99.90;;;;;;5077103;28;20040;-89
2023/09/05 07:24:31;;;;;;;14.50;7.70;;;16.40;99.90;;;;;;5076047;28;20505;-89
2023/09/05 07:26:58;;;;;;;10.35;7.32;;;16.60;99.90;;;;;;5079889;28;20043;-88
2023/09/05 07:29:26;;;;;;;9.88;7.35;;;16.80;99.90;;;;;;5063207;28;20096;-88
2023/09/05 07:31:53;;;;;;;13.90;7.45;;;16.90;99.90;;;;;;5062607;28;20055;-90
2023/09/05 07:34:19;;;;;;;10.13;6.43;;;17.00;99.90;;;;;;5079879;28;20040;-90
2023/09/05 07:36:46;;;;;;;10.07;7.38;;;17.10;99.90;;;;;;5079806;28;20044;-89
2023/09/05 07:39:13;;;;;;;11.00;6.40;;;17.30;99.90;;;;;;5080068;28;20500;-88
2023/09/05 07:41:39;;;;;;;10.15;6.40;;;17.40;99.90;;;;;;5079377;28;20044;-88
2023/09/05 07:44:07;;;;;;;11.82;7.35;;;17.50;99.90;;;;;;5079578;28;20066;-89
2023/09/05 07:46:33;;;;;;;12.07;6.80;;;17.60;99.90;;;;;;5062701;28;20039;-89
2023/09/05 07:49:03;;;;;;;10.23;7.40;;;17.70;99.90;;;;;;5080032;28;20085;-91
2023/09/05 07:51:30;;;;;;;9.82;6.45;;;17.90;99.90;;;;;;5062789;28;20488;-90
2023/09/05 07:54:03;;;;;;;13.85;6.90;;;18.10;99.90;;;;;;5075584;28;20086;-89
2023/09/05 07:56:31;;;;;;;9.15;7.03;;;18.10;99.90;;;;;;5095832;28;20074;-89
2023/09/05 07:58:58;;;;;;;9.55;6.50;;;18.20;99.90;;;;;;5079518;28;20438;-88
2023/09/05 08:01:25;;;;;;;9.40;6.60;;;18.30;99.90;;;;;;5062504;28;20036;-88
2023/09/05 08:03:52;;;;;;;8.95;6.75;;;18.40;99.90;;;;;;5079302;28;20040;-88
2023/09/05 08:06:20;;;;;;;11.77;7.00;;;18.60;99.90;;;;;;5091563;28;20040;-88
2023/09/05 08:08:46;;;;;;;12.43;6.72;;;18.70;99.90;;;;;;5113799;28;20063;-87
2023/09/05 08:11:14;;;;;;;8.77;6.53;;;18.80;99.90;;;;;;5082465;28;20036;-88
2023/09/05 08:13:41;;;;;;;9.00;6.30;;;18.90;99.90;;;;;;5109420;28;20069;-87
2023/09/05 08:16:10;;;;;;;7.60;5.70;;;19.00;99.90;;;;;;5098453;28;20122;-88
2023/09/05 08:18:37;;;;;;;9.45;6.20;;;19.10;99.90;;;;;;5101398;28;20052;-87
2023/09/05 08:21:04;;;;;;;11.35;6.28;;;19.30;99.90;;;;;;5067818;28;20176;-87
2023/09/05 08:23:31;;;;;;;11.23;6.10;;;19.40;99.90;;;;;;5078351;28;20130;-89
2023/09/05 08:25:59;;;;;;;9.90;6.75;;;19.50;99.90;;;;;;5081722;28;20400;-90
2023/09/05 08:28:32;;;;;;;10.10;6.63;;;19.60;99.90;;;;;;5090414;28;20118;-88
2023/09/05 08:31:00;;;;;;;7.25;5.60;;;19.80;99.90;;;;;;5112907;28;20038;-90
2023/09/05 08:33:43;;;;;;;14.60;7.00;;;19.90;99.90;;;;;;5065387;28;20074;-84
2023/09/05 08:36:10;;;;;;;10.18;5.57;;;20.10;99.90;;;;;;5099744;28;20072;-83
2023/09/05 08:38:39;;;;;;;7.72;5.43;;;20.20;99.90;;;;;;5113562;28;20070;-83
2023/09/05 08:41:06;;;;;;;12.38;6.07;;;20.30;99.90;;;;;;5081565;28;20062;-83
2023/09/05 08:43:34;;;;;;;8.45;5.43;;;20.40;99.90;;;;;;5113860;28;20039;-84
2023/09/05 08:46:02;;;;;;;6.88;5.22;;;20.60;99.90;;;;;;5069821;28;20127;-83
2023/09/05 08:48:30;;;;;;;10.55;5.65;;;20.70;99.90;;;;;;5077695;28;20040;-84
2023/09/05 08:50:59;;;;;;;10.32;5.82;;;20.90;99.90;;;;;;5077693;28;20048;-83
2023/09/05 08:53:36;;;;;;;9.10;5.40;;;21.00;99.90;;;;;;5093559;28;20571;-84
2023/09/05 08:56:03;;;;;;;7.20;5.38;;;21.10;99.90;;;;;;5093704;28;20083;-82
2023/09/05 08:58:31;;;;;;;10.52;5.32;;;21.20;99.90;;;;;;5104083;28;20035;-82
2023/09/05 09:00:58;;;;;;;7.85;5.70;;;21.30;99.90;;;;;;5078296;28;20043;-83
2023/09/05 09:03:26;;;;;;;10.40;5.30;;;21.50;99.90;;;;;;5064065;28;20122;-82
2023/09/05 09:05:53;;;;;;;8.10;5.40;;;21.70;99.90;;;;;;5072270;28;20039;-83
2023/09/05 09:08:19;;;;;;;7.55;5.60;;;21.80;99.90;;;;;;5091775;28;20500;-82
2023/09/05 09:11:06;;;;;;;9.68;5.10;;;21.90;99.90;;;;;;5064851;28;20125;-82
2023/09/05 09:13:33;;;;;;;9.20;5.07;;;22.00;99.90;;;;;;5118998;28;20044;-82
2023/09/05 09:16:03;;;;;;;7.40;4.68;;;22.10;99.90;;;;;;5109769;28;20071;-82
2023/09/05 09:18:32;;;;;;;8.07;4.68;;;22.30;99.90;;;;;;5105692;28;20493;-83
2023/09/05 09:21:05;;;;;;;7.55;4.93;;;22.40;99.90;;;;;;5086973;28;20636;-83
2023/09/05 09:23:33;;;;;;;6.72;4.55;;;22.50;99.90;;;;;;5108980;28;20438;-83
2023/09/05 09:26:01;;;;;;;6.93;4.25;;;22.60;99.90;;;;;;5109149;28;20032;-82
2023/09/05 09:28:36;;;;;;;9.47;4.43;;;22.80;99.90;;;;;;5078948;28;20032;-82
2023/09/05 09:31:20;;;;;;;6.53;4.07;;;22.80;99.90;;;;;;5089220;28;20044;-82
2023/09/05 09:33:56;;;;;;;6.20;3.75;;;23.00;99.90;;;;;;5090298;28;20500;-83
2023/09/05 09:36:35;;;;;;;6.45;3.80;;;23.10;99.90;;;;;;5093402;28;20044;-82
2023/09/05 09:39:12;;;;;;;5.82;3.53;;;23.30;99.90;;;;;;5089357;28;20040;-83
2023/09/05 09:41:46;;;;;;;7.57;4.13;;;23.40;99.90;;;;;;5104395;28;20412;-83
2023/09/05 09:44:31;;;;;;;6.22;4.15;;;23.50;99.90;;;;;;5109403;28;20090;-83
2023/09/05 09:47:00;;;;;;;5.72;3.88;;;23.60;99.90;;;;;;5091028;28;20039;-83
2023/09/05 09:49:29;;;;;;;5.65;3.28;;;23.80;99.90;;;;;;5070188;28;20058;-83
2023/09/05 09:51:59;;;;;;;6.35;3.85;;;23.90;99.90;;;;;;5108501;28;20124;-83
2023/09/05 09:54:31;;;;;;;7.18;3.63;;;24.10;99.90;;;;;;5108957;28;20066;-84
2023/09/05 09:57:00;;;;;;;6.20;3.40;;;24.10;99.90;;;;;;5103495;28;20043;-84
2023/09/05 09:59:35;;;;;;;7.78;3.60;;;24.20;99.90;;;;;;5092856;28;20047;-84
2023/09/05 10:02:07;;;;;;;5.97;3.05;;;24.30;99.90;;;;;;5074387;28;20520;-84
2023/09/05 10:04:35;;;;;;;4.30;3.10;;;24.50;99.90;;;;;;5108698;28;20067;-84
2023/09/05 10:07:05;;;;;;;5.65;3.15;;;24.50;99.90;;;;;;5091838;28;20079;-84
2023/09/05 10:09:35;;;;;;;5.57;3.22;;;24.70;99.90;;;;;;5105804;28;20045;-84
2023/09/05 10:12:03;;;;;;;6.65;3.60;;;24.70;99.90;;;;;;5114179;28;20430;-83
2023/09/05 10:14:31;;;;;;;8.40;4.30;;;24.80;99.90;;;;;;5098270;28;20090;-84
2023/09/05 10:16:59;;;;;;;6.72;4.05;;;24.90;99.90;;;;;;5088551;28;20044;-84
2023/09/05 10:19:29;;;;;;;6.78;4.05;;;24.90;99.90;;;;;;5081403;28;20044;-83
2023/09/05 10:21:58;;;;;;;10.35;4.30;;;25.00;99.90;;;;;;5071329;28;20044;-82
2023/09/05 10:24:28;;;;;;;7.25;3.90;;;25.20;99.90;;;;;;5101905;28;20079;-85
2023/09/05 10:26:55;;;;;;;6.45;3.85;;;25.30;99.90;;;;;;5089534;28;20049;-84
2023/09/05 10:29:31;;;;;;;6.28;4.10;;;25.40;99.90;;;;;;5073286;28;20043;-84
2023/09/05 10:31:58;;;;;;;5.72;3.58;;;25.40;99.90;;;;;;5089982;28;20119;-84
2023/09/05 10:34:47;;;;;;;6.80;4.13;;;25.60;99.90;;;;;;5073844;28;20077;-83
2023/09/05 10:37:14;;;;;;;5.13;2.35;;;25.70;99.90;;;;;;5090599;28;20135;-83
2023/09/05 10:39:45;;;;;;;3.63;2.30;;;25.80;99.90;;;;;;5107564;28;20050;-83
2023/09/05 10:42:14;;;;;;;3.53;2.08;;;25.90;99.90;;;;;;5068428;28;20040;-84
2023/09/05 10:44:42;;;;;;;2.97;1.92;;;26.00;99.90;;;;;;5075618;28;20084;-85
2023/09/05 10:47:33;;;;;;;6.38;2.40;;;26.10;99.90;;;;;;5113128;28;20480;-85
2023/09/05 10:50:03;;;;;;;3.95;2.17;;;26.10;99.90;;;;;;5075962;28;20036;-85
2023/09/05 10:52:30;;;;;;;5.97;2.50;;;26.20;99.90;;;;;;5120995;28;20705;-85
2023/09/05 10:54:59;;;;;;;4.43;2.72;;;26.30;99.90;;;;;;5098291;28;20041;-86
2023/09/05 10:57:40;;;;;;;3.60;2.08;;;26.30;99.90;;;;;;5108507;28;20122;-84
2023/09/05 11:00:29;;;;;;;5.00;2.30;;;26.30;99.90;;;;;;5111101;28;20044;-84
2023/09/05 11:03:09;;;;;;;4.25;2.30;;;26.40;99.90;;;;;;5112410;28;20036;-84
2023/09/05 11:05:52;;;;;;;5.07;2.28;;;26.50;99.90;;;;;;5121610;28;20119;-89
2023/09/05 11:08:22;;;;;;;4.55;2.30;;;26.70;99.90;;;;;;5079183;28;20044;-92
2023/09/05 11:10:56;;;;;;;4.55;2.03;;;26.80;99.90;;;;;;5093480;28;20032;-92
2023/09/05 11:13:23;;;;;;;6.45;1.85;;;26.90;99.90;;;;;;5067285;28;20037;-91
2023/09/05 11:15:58;;;;;;;4.38;2.13;;;27.00;99.90;;;;;;5060988;28;20041;-91
2023/09/05 11:18:25;;;;;;;3.90;2.10;;;27.10;99.90;;;;;;5113789;28;20396;-90
2023/09/05 11:20:53;;;;;;;2.83;1.77;;;27.10;99.90;;;;;;5071072;28;20069;-91
2023/09/05 11:23:22;;;;;;;4.35;1.98;;;27.00;99.90;;;;;;5085267;28;20102;-90
2023/09/05 11:25:50;;;;;;;5.50;1.90;;;27.10;99.90;;;;;;5101801;28;20042;-90
2023/09/05 11:28:17;;;;;;;3.55;1.88;;;27.10;99.90;;;;;;5106447;28;20042;-90
2023/09/05 11:30:46;;;;;;;3.00;1.77;;;27.10;99.90;;;;;;5084803;28;20035;-90
2023/09/05 11:33:14;;;;;;;3.25;1.75;;;27.20;99.90;;;;;;5092977;28;20028;-92
2023/09/05 11:35:42;;;;;;;4.32;2.25;;;27.20;99.90;;;;;;5108116;28;20043;-90
2023/09/05 11:38:13;;;;;;;6.05;2.25;;;27.30;99.90;;;;;;5071769;28;20043;-92
2023/09/05 11:40:41;;;;;;;3.47;2.00;;;27.40;99.90;;;;;;5062695;28;20127;-90
2023/09/05 11:43:10;;;;;;;4.85;1.88;;;27.40;99.90;;;;;;5117406;28;20772;-93
2023/09/05 11:45:38;;;;;;;3.75;1.77;;;27.50;99.90;;;;;;5115937;28;20044;-90
2023/09/05 11:48:07;;;;;;;3.97;1.90;;;27.50;99.90;;;;;;5108890;28;20047;-92
2023/09/05 11:50:34;;;;;;;5.18;2.30;;;27.60;99.90;;;;;;5098464;28;20044;-90
2023/09/05 11:53:03;;;;;;;6.35;2.70;;;27.60;99.90;;;;;;5088556;28;20036;-91
2023/09/05 11:55:30;;;;;;;3.75;2.13;;;27.70;99.90;;;;;;5086831;28;20044;-92
2023/09/05 11:57:59;;;;;;;6.22;2.50;;;27.70;99.90;;;;;;5092486;28;20472;-90
2023/09/05 12:00:26;;;;;;;5.05;2.78;;;27.70;99.90;;;;;;5084574;28;20129;-90
2023/09/05 12:02:55;;;;;;;6.25;2.90;;;27.70;99.90;;;;;;5102750;28;20519;-94
2023/09/05 12:05:22;;;;;;;5.60;2.30;;;27.70;99.90;;;;;;5112722;28;20040;-93
2023/09/05 12:07:50;;;;;;;6.38;2.35;;;27.70;99.90;;;;;;5095574;28;20044;-93
2023/09/05 12:10:17;;;;;;;4.00;2.50;;;27.80;99.90;;;;;;5094974;28;20050;-94
2023/09/05 12:12:58;;;;;;;5.63;2.58;;;27.80;99.90;;;;;;5112681;28;20447;-91
2023/09/05 12:15:35;;;;;;;4.70;2.60;;;27.80;99.90;;;;;;5096178;28;20480;-93
2023/09/05 12:18:04;;;;;;;4.85;2.80;;;27.80;99.90;;;;;;5096804;28;20032;-93
2023/09/05 12:20:35;;;;;;;4.55;2.50;;;27.80;99.90;;;;;;5095723;28;20044;-93
2023/09/05 12:23:02;;;;;;;4.80;2.97;;;27.90;99.90;;;;;;5095693;28;20043;-93
2023/09/05 12:25:29;;;;;;;4.25;2.90;;;27.90;99.90;;;;;;5112402;28;20036;-93
2023/09/05 12:28:16;;;;;;;3.65;2.40;;;27.80;99.90;;;;;;5095767;28;20548;-91
2023/09/05 12:30:43;;;;;;;3.78;2.50;;;27.90;99.90;;;;;;5112629;28;20036;-92
2023/09/05 12:33:11;;;;;;;3.92;2.30;;;27.90;99.90;;;;;;5105630;28;20036;-93
2023/09/05 12:35:37;;;;;;;5.50;2.88;;;27.90;99.90;;;;;;5091859;28;20083;-92
2023/09/05 12:38:04;;;;;;;3.65;2.28;;;27.90;99.90;;;;;;5075399;28;20079;-93
2023/09/05 12:40:34;;;;;;;4.10;2.40;;;27.90;99.90;;;;;;5059266;28;20052;-94
2023/09/05 12:43:01;;;;;;;4.75;2.35;;;28.00;99.90;;;;;;5093276;28;20069;-90
2023/09/05 12:45:28;;;;;;;5.40;2.40;;;28.00;99.90;;;;;;5111488;28;20476;-90
2023/09/05 12:47:55;;;;;;;5.30;2.40;;;28.00;99.90;;;;;;5078721;28;20024;-90